Time;durP1;ratioP1;P1;durP2;ratioP2;P2;SDS_P1;SDS_P2;PMS_P1;PMS_P2;Temp;Humidity;BMP_temperature;BMP_pressure;BME280_temperature;BME280_humidity;BME280_pressure;Samples;Min_cycle;Max_cycle;Signal;HPM_P1;HPM_P2
2021/05/22 00:02:15;;;;;;;0.60;0.57;;;;;;;;;;5002341;28;20037;-67
2021/05/22 00:04:41;;;;;;;1.48;0.70;;;;;;;;;;5002995;28;20045;-69
2021/05/22 00:07:06;;;;;;;1.25;0.60;;;;;;;;;;4992964;28;20054;-66
2021/05/22 00:09:32;;;;;;;0.50;0.38;;;;;;;;;;5005707;28;20021;-66
2021/05/22 00:11:57;;;;;;;2.45;0.60;;;;;;;;;;5006363;28;20402;-69
2021/05/22 00:14:23;;;;;;;0.57;0.47;;;;;;;;;;5014464;28;20087;-68
2021/05/22 00:16:48;;;;;;;0.82;0.43;;;;;;;;;;4999517;28;20092;-68
2021/05/22 00:19:14;;;;;;;0.65;0.40;;;;;;;;;;4998683;28;20362;-68
2021/05/22 00:21:39;;;;;;;1.05;0.45;;;;;;;;;;4999771;28;20040;-68
2021/05/22 00:24:05;;;;;;;1.25;0.45;;;;;;;;;;5015982;28;20115;-68
2021/05/22 00:26:30;;;;;;;2.70;0.60;;;;;;;;;;4997536;28;20505;-68
2021/05/22 00:28:56;;;;;;;0.93;0.43;;;;;;;;;;5003724;28;20547;-68
2021/05/22 00:31:21;;;;;;;2.65;0.57;;;;;;;;;;5005490;28;20018;-68
2021/05/22 00:33:47;;;;;;;1.63;0.50;;;;;;;;;;5006615;28;20184;-68
2021/05/22 00:36:12;;;;;;;1.05;0.55;;;;;;;;;;4997450;28;20034;-68
2021/05/22 00:38:39;;;;;;;1.05;0.50;;;;;;;;;;5000588;28;20060;-68
2021/05/22 00:41:05;;;;;;;2.85;0.43;;;;;;;;;;5004154;28;20080;-68
2021/05/22 00:43:30;;;;;;;0.73;0.50;;;;;;;;;;5009390;28;20034;-68
2021/05/22 00:45:55;;;;;;;0.90;0.57;;;;;;;;;;4994881;28;20029;-68
2021/05/22 00:48:22;;;;;;;0.80;0.50;;;;;;;;;;5008650;28;20029;-68
2021/05/22 00:50:50;;;;;;;0.88;0.50;;;;;;;;;;5000461;28;20084;-68
2021/05/22 00:53:17;;;;;;;0.50;0.50;;;;;;;;;;5014326;28;20044;-68
2021/05/22 00:55:42;;;;;;;2.72;0.50;;;;;;;;;;4997953;28;20084;-68
2021/05/22 00:58:08;;;;;;;1.65;0.57;;;;;;;;;;5007698;28;20490;-68
2021/05/22 01:00:50;;;;;;;0.93;0.50;;;;;;;;;;4997931;28;20061;-68
2021/05/22 01:03:29;;;;;;;2.53;0.77;;;;;;;;;;5012239;28;20033;-68
2021/05/22 01:06:21;;;;;;;0.90;0.70;;;;;;;;;;5017157;28;20033;-68
2021/05/22 01:08:56;;;;;;;1.92;0.45;;;;;;;;;;4995428;28;20037;-67
2021/05/22 01:11:25;;;;;;;0.47;0.40;;;;;;;;;;4993564;28;20493;-67
2021/05/22 01:14:05;;;;;;;0.90;0.57;;;;;;;;;;5001561;28;20171;-68
2021/05/22 01:16:32;;;;;;;0.63;0.43;;;;;;;;;;5011879;28;20064;-68
2021/05/22 01:19:00;;;;;;;1.17;0.55;;;;;;;;;;5013850;28;20465;-68
2021/05/22 01:21:26;;;;;;;0.65;0.50;;;;;;;;;;5010951;28;20452;-68
2021/05/22 01:24:02;;;;;;;1.00;0.50;;;;;;;;;;4998908;28;20125;-69
2021/05/22 01:26:28;;;;;;;2.95;0.60;;;;;;;;;;4995659;28;20133;-69
2021/05/22 01:28:57;;;;;;;1.58;0.57;;;;;;;;;;5005443;28;20080;-69
2021/05/22 01:31:23;;;;;;;3.15;0.70;;;;;;;;;;5001705;28;20015;-68
2021/05/22 01:33:49;;;;;;;2.05;0.63;;;;;;;;;;4996774;28;20034;-67
2021/05/22 01:36:14;;;;;;;2.72;0.60;;;;;;;;;;4998253;28;20413;-68
2021/05/22 01:38:42;;;;;;;2.05;0.80;;;;;;;;;;4996648;28;20023;-68
2021/05/22 01:41:07;;;;;;;2.45;0.60;;;;;;;;;;4994988;28;20014;-67
2021/05/22 01:43:35;;;;;;;3.40;0.90;;;;;;;;;;5003670;28;20098;-67
2021/05/22 01:46:01;;;;;;;3.63;0.75;;;;;;;;;;5003412;28;20034;-67
2021/05/22 01:48:27;;;;;;;1.45;0.70;;;;;;;;;;4991356;28;20029;-67
2021/05/22 01:51:08;;;;;;;1.17;0.65;;;;;;;;;;5010863;28;20126;-67
2021/05/22 01:53:38;;;;;;;1.25;1.00;;;;;;;;;;4999160;28;20431;-67
2021/05/22 01:56:04;;;;;;;3.30;0.82;;;;;;;;;;5004519;28;20505;-68
2021/05/22 01:58:30;;;;;;;3.40;0.70;;;;;;;;;;5005451;28;20401;-68
2021/05/22 02:00:56;;;;;;;1.98;0.55;;;;;;;;;;5013978;28;20093;-68
2021/05/22 02:03:42;;;;;;;0.80;0.50;;;;;;;;;;5000957;28;20437;-68
2021/05/22 02:06:15;;;;;;;5.72;0.80;;;;;;;;;;5005562;28;20030;-68
2021/05/22 02:08:44;;;;;;;1.05;0.50;;;;;;;;;;5008542;28;20044;-68
2021/05/22 02:11:11;;;;;;;2.07;0.60;;;;;;;;;;5025467;28;20026;-68
2021/05/22 02:13:39;;;;;;;1.40;0.68;;;;;;;;;;5010718;28;20307;-68
2021/05/22 02:16:06;;;;;;;1.58;0.75;;;;;;;;;;5000388;28;20030;-68
2021/05/22 02:18:34;;;;;;;2.30;0.70;;;;;;;;;;5003607;28;20101;-68
2021/05/22 02:21:03;;;;;;;1.60;0.82;;;;;;;;;;5004437;28;20021;-70
2021/05/22 02:23:30;;;;;;;1.85;0.65;;;;;;;;;;5007860;28;20076;-68
2021/05/22 02:25:57;;;;;;;1.67;0.60;;;;;;;;;;4998223;28;20045;-68
2021/05/22 02:28:27;;;;;;;2.67;0.63;;;;;;;;;;5017023;28;20473;-67
2021/05/22 02:30:53;;;;;;;2.05;0.80;;;;;;;;;;5003642;28;20551;-68
2021/05/22 02:33:19;;;;;;;2.83;0.73;;;;;;;;;;5006094;28;20057;-68
2021/05/22 02:35:46;;;;;;;3.92;0.70;;;;;;;;;;5008729;28;20089;-68
2021/05/22 02:38:22;;;;;;;2.10;0.70;;;;;;;;;;5021962;28;20030;-67
2021/05/22 02:40:52;;;;;;;3.83;0.65;;;;;;;;;;5009990;28;20036;-67
2021/05/22 02:43:18;;;;;;;5.00;0.85;;;;;;;;;;5014049;28;20025;-67
2021/05/22 02:45:47;;;;;;;2.17;0.60;;;;;;;;;;4998668;28;20029;-67
2021/05/22 02:48:17;;;;;;;3.85;1.00;;;;;;;;;;5005382;28;20566;-67
2021/05/22 02:50:49;;;;;;;1.60;0.70;;;;;;;;;;5007557;28;20495;-67
2021/05/22 02:53:18;;;;;;;1.05;0.60;;;;;;;;;;5013189;28;20400;-67
2021/05/22 02:55:46;;;;;;;1.75;0.77;;;;;;;;;;5008695;28;20076;-67
2021/05/22 02:58:13;;;;;;;4.07;0.68;;;;;;;;;;5009043;28;20037;-67
2021/05/22 03:00:39;;;;;;;2.42;0.70;;;;;;;;;;5003699;28;20117;-68
2021/05/22 03:03:05;;;;;;;4.50;0.85;;;;;;;;;;5004784;28;20042;-67
2021/05/22 03:05:31;;;;;;;5.50;0.90;;;;;;;;;;4998503;28;20030;-67
2021/05/22 03:07:57;;;;;;;2.40;0.82;;;;;;;;;;4999071;28;20110;-67
2021/05/22 03:10:22;;;;;;;6.53;1.10;;;;;;;;;;4996329;28;20104;-68
2021/05/22 03:12:48;;;;;;;1.92;0.80;;;;;;;;;;5014480;28;20393;-68
2021/05/22 03:15:14;;;;;;;2.65;0.80;;;;;;;;;;5001780;28;20063;-68
2021/05/22 03:17:39;;;;;;;1.40;0.70;;;;;;;;;;5014240;28;20033;-68
2021/05/22 03:20:06;;;;;;;2.50;0.68;;;;;;;;;;4999592;28;20508;-68
2021/05/22 03:22:32;;;;;;;3.25;0.90;;;;;;;;;;5008061;28;20038;-68
2021/05/22 03:24:58;;;;;;;1.30;0.60;;;;;;;;;;5006751;28;20110;-69
2021/05/22 03:27:24;;;;;;;5.13;0.98;;;;;;;;;;4999568;28;20193;-68
2021/05/22 03:29:49;;;;;;;2.10;0.73;;;;;;;;;;5008627;28;20034;-68
2021/05/22 03:32:15;;;;;;;3.15;1.20;;;;;;;;;;4999624;28;20493;-69
2021/05/22 03:34:40;;;;;;;3.03;0.85;;;;;;;;;;5004839;28;20025;-69
2021/05/22 03:37:06;;;;;;;2.05;0.65;;;;;;;;;;5010699;28;20026;-68
2021/05/22 03:39:31;;;;;;;3.10;0.88;;;;;;;;;;4999410;28;20040;-68
2021/05/22 03:41:57;;;;;;;3.08;1.02;;;;;;;;;;4992337;28;20113;-68
2021/05/22 03:44:23;;;;;;;5.28;0.93;;;;;;;;;;5003659;28;20022;-68
2021/05/22 03:46:48;;;;;;;4.28;0.93;;;;;;;;;;5004231;28;20060;-68
2021/05/22 03:49:16;;;;;;;6.10;0.82;;;;;;;;;;5002616;28;20037;-67
2021/05/22 03:51:42;;;;;;;4.13;1.10;;;;;;;;;;5000012;28;20031;-68
2021/05/22 03:54:07;;;;;;;3.30;1.10;;;;;;;;;;5004564;28;20022;-68
2021/05/22 03:56:33;;;;;;;3.30;0.90;;;;;;;;;;4998743;28;20029;-68
2021/05/22 03:58:58;;;;;;;4.90;1.08;;;;;;;;;;4996079;28;20031;-68
2021/05/22 04:01:24;;;;;;;2.60;0.73;;;;;;;;;;4995701;28;20109;-69
2021/05/22 04:03:49;;;;;;;5.38;1.55;;;;;;;;;;5006093;28;21211;-66
2021/05/22 04:06:15;;;;;;;2.47;0.73;;;;;;;;;;5005936;28;20511;-68
2021/05/22 04:08:41;;;;;;;2.60;1.25;;;;;;;;;;5009814;28;20079;-68
2021/05/22 04:11:06;;;;;;;2.92;0.95;;;;;;;;;;5013665;28;20026;-68
2021/05/22 04:13:32;;;;;;;4.53;0.82;;;;;;;;;;5004084;28;20496;-68
2021/05/22 04:15:57;;;;;;;3.65;1.08;;;;;;;;;;5007478;28;20482;-68
2021/05/22 04:18:23;;;;;;;3.28;1.00;;;;;;;;;;5003436;28;20027;-68
2021/05/22 04:20:51;;;;;;;4.47;1.52;;;;;;;;;;5015862;28;20101;-68
2021/05/22 04:23:16;;;;;;;2.38;0.80;;;;;;;;;;5014895;28;20034;-67
2021/05/22 04:25:42;;;;;;;1.85;0.85;;;;;;;;;;5005793;28;20030;-68
2021/05/22 04:28:08;;;;;;;2.67;0.80;;;;;;;;;;5012182;28;20029;-67
2021/05/22 04:30:33;;;;;;;4.45;1.00;;;;;;;;;;4994405;28;20036;-68
2021/05/22 04:32:59;;;;;;;3.17;1.02;;;;;;;;;;5018263;28;20037;-69
2021/05/22 04:35:24;;;;;;;3.67;0.90;;;;;;;;;;5011171;28;20087;-67
2021/05/22 04:37:49;;;;;;;3.17;1.08;;;;;;;;;;5011636;28;20091;-68
2021/05/22 04:40:15;;;;;;;4.10;0.70;;;;;;;;;;5008784;28;20385;-67
2021/05/22 04:42:40;;;;;;;3.15;1.30;;;;;;;;;;5007486;28;20393;-68
2021/05/22 04:45:07;;;;;;;3.55;1.00;;;;;;;;;;5006641;28;20278;-68
2021/05/22 04:47:33;;;;;;;5.47;1.33;;;;;;;;;;5011651;28;20038;-67
2021/05/22 04:49:59;;;;;;;3.05;1.20;;;;;;;;;;5005035;28;20029;-68
2021/05/22 04:52:26;;;;;;;3.55;1.10;;;;;;;;;;5001371;28;20574;-67
2021/05/22 04:54:52;;;;;;;6.15;0.88;;;;;;;;;;5009134;28;20085;-68
2021/05/22 04:57:18;;;;;;;5.05;1.33;;;;;;;;;;5007319;28;20049;-67
2021/05/22 04:59:44;;;;;;;2.90;1.15;;;;;;;;;;5005598;28;20120;-68
2021/05/22 05:02:10;;;;;;;8.23;1.20;;;;;;;;;;5007685;28;20478;-67
2021/05/22 05:04:35;;;;;;;3.83;1.10;;;;;;;;;;4999726;28;20034;-68
2021/05/22 05:07:04;;;;;;;7.25;0.90;;;;;;;;;;5023435;28;20055;-69
2021/05/22 05:09:34;;;;;;;2.60;1.10;;;;;;;;;;4997849;28;20135;-68
2021/05/22 05:12:07;;;;;;;6.40;1.17;;;;;;;;;;5000865;28;20034;-68
2021/05/22 05:14:33;;;;;;;3.00;1.10;;;;;;;;;;5010711;28;20030;-67
2021/05/22 05:16:59;;;;;;;3.88;1.00;;;;;;;;;;5006379;28;20041;-67
2021/05/22 05:19:28;;;;;;;3.72;1.15;;;;;;;;;;5003403;28;20034;-68
2021/05/22 05:21:54;;;;;;;3.58;1.25;;;;;;;;;;5020353;28;20021;-68
2021/05/22 05:24:19;;;;;;;5.05;1.55;;;;;;;;;;5004751;28;20519;-68
2021/05/22 05:26:45;;;;;;;4.80;0.73;;;;;;;;;;5015409;28;20041;-69
2021/05/22 05:29:10;;;;;;;3.67;0.80;;;;;;;;;;5007127;28;20454;-68
2021/05/22 05:31:36;;;;;;;4.43;0.80;;;;;;;;;;4992291;28;20026;-69
2021/05/22 05:34:01;;;;;;;4.32;1.10;;;;;;;;;;5001106;28;20026;-68
2021/05/22 05:36:27;;;;;;;4.68;0.75;;;;;;;;;;5000915;28;20032;-68
2021/05/22 05:38:53;;;;;;;3.80;0.80;;;;;;;;;;5003666;28;20064;-68
2021/05/22 05:41:19;;;;;;;5.03;1.15;;;;;;;;;;5005094;28;20038;-68
2021/05/22 05:43:44;;;;;;;2.28;0.70;;;;;;;;;;4998937;28;20905;-68
2021/05/22 05:46:10;;;;;;;4.45;0.93;;;;;;;;;;5007427;28;20366;-67
2021/05/22 05:48:35;;;;;;;3.28;0.80;;;;;;;;;;5004099;28;20038;-68
2021/05/22 05:51:01;;;;;;;5.88;1.10;;;;;;;;;;5017627;28;20207;-68
2021/05/22 05:53:26;;;;;;;2.42;0.95;;;;;;;;;;4995933;28;20034;-68
2021/05/22 05:55:52;;;;;;;3.97;0.80;;;;;;;;;;5004384;28;20028;-68
2021/05/22 05:58:17;;;;;;;3.63;0.85;;;;;;;;;;5023503;28;20956;-68
2021/05/22 06:00:42;;;;;;;3.72;0.90;;;;;;;;;;5013037;28;20018;-68
2021/05/22 06:03:08;;;;;;;4.93;1.38;;;;;;;;;;5009358;28;20221;-68
2021/05/22 06:05:33;;;;;;;4.65;1.00;;;;;;;;;;5014101;28;20503;-68
2021/05/22 06:07:59;;;;;;;4.03;0.95;;;;;;;;;;5023974;28;20037;-68
2021/05/22 06:10:24;;;;;;;3.67;0.90;;;;;;;;;;4998415;28;20108;-67
2021/05/22 06:12:50;;;;;;;2.80;0.90;;;;;;;;;;5012422;28;20026;-67
2021/05/22 06:17:42;;;;;;;3.17;0.80;;;;;;;;;;5016158;28;20022;-68
2021/05/22 06:20:08;;;;;;;6.85;0.90;;;;;;;;;;5015921;28;20432;-68
2021/05/22 06:22:33;;;;;;;3.95;1.02;;;;;;;;;;5012869;28;20195;-68
2021/05/22 06:24:59;;;;;;;1.42;0.82;;;;;;;;;;5009260;28;20112;-69
2021/05/22 06:27:25;;;;;;;4.20;1.30;;;;;;;;;;5009932;28;20137;-68
2021/05/22 06:29:50;;;;;;;3.42;0.90;;;;;;;;;;5002014;28;20175;-69
2021/05/22 06:32:16;;;;;;;1.95;0.60;;;;;;;;;;5013822;28;20432;-69
2021/05/22 06:34:41;;;;;;;3.40;1.05;;;;;;;;;;5018623;28;20033;-69
2021/05/22 06:37:08;;;;;;;2.65;0.68;;;;;;;;;;5014298;28;20473;-67
2021/05/22 06:39:33;;;;;;;5.75;1.27;;;;;;;;;;5011686;28;20370;-68
2021/05/22 06:41:59;;;;;;;8.98;0.90;;;;;;;;;;5012872;28;20021;-68
2021/05/22 06:44:25;;;;;;;5.78;0.85;;;;;;;;;;5008568;28;20037;-70
2021/05/22 06:46:51;;;;;;;14.18;2.28;;;;;;;;;;5010862;28;20117;-69
2021/05/22 06:49:19;;;;;;;4.45;1.40;;;;;;;;;;5003682;28;20045;-69
2021/05/22 06:51:45;;;;;;;3.20;1.00;;;;;;;;;;5010696;28;20025;-69
2021/05/22 06:54:11;;;;;;;2.65;0.80;;;;;;;;;;5003341;28;20095;-68
2021/05/22 06:56:37;;;;;;;3.65;0.90;;;;;;;;;;4999757;28;20500;-69
2021/05/22 06:59:03;;;;;;;4.82;1.00;;;;;;;;;;5004613;28;20076;-68
2021/05/22 07:01:29;;;;;;;6.53;1.23;;;;;;;;;;5009352;28;20473;-68
2021/05/22 07:03:55;;;;;;;3.88;1.25;;;;;;;;;;4997004;28;20054;-69
2021/05/22 07:06:23;;;;;;;4.50;1.00;;;;;;;;;;5008537;28;20022;-69
2021/05/22 07:08:54;;;;;;;10.02;1.30;;;;;;;;;;5011615;28;20079;-70
2021/05/22 07:11:21;;;;;;;2.78;0.80;;;;;;;;;;5007060;28;20018;-68
2021/05/22 07:13:47;;;;;;;3.85;1.10;;;;;;;;;;5005931;28;20033;-67
2021/05/22 07:16:12;;;;;;;3.78;0.90;;;;;;;;;;5008558;28;20392;-69
2021/05/22 07:18:37;;;;;;;6.93;0.80;;;;;;;;;;5003362;28;20034;-69
2021/05/22 07:21:03;;;;;;;4.78;0.80;;;;;;;;;;5008058;28;20018;-69
2021/05/22 07:23:29;;;;;;;4.35;1.15;;;;;;;;;;4998749;28;20057;-69
2021/05/22 07:25:54;;;;;;;4.15;0.90;;;;;;;;;;5010256;28;20037;-69
2021/05/22 07:28:20;;;;;;;8.30;2.83;;;;;;;;;;5007360;28;20110;-69
2021/05/22 07:30:45;;;;;;;3.63;0.90;;;;;;;;;;5003733;28;20033;-68
2021/05/22 07:33:12;;;;;;;2.05;0.80;;;;;;;;;;5012117;28;20026;-69
2021/05/22 07:35:38;;;;;;;6.72;2.60;;;;;;;;;;5015931;28;20473;-70
2021/05/22 07:38:03;;;;;;;4.45;1.02;;;;;;;;;;5004791;28;20037;-68
2021/05/22 07:40:31;;;;;;;6.05;1.00;;;;;;;;;;4998394;28;20026;-69
2021/05/22 07:42:57;;;;;;;8.15;0.90;;;;;;;;;;5006649;28;20061;-69
2021/05/22 07:45:22;;;;;;;2.45;0.68;;;;;;;;;;5019837;28;20037;-68
2021/05/22 07:47:48;;;;;;;3.63;0.60;;;;;;;;;;5030598;28;20045;-69
2021/05/22 07:50:13;;;;;;;2.40;0.93;;;;;;;;;;5012618;28;20144;-69
2021/05/22 07:52:40;;;;;;;5.53;0.90;;;;;;;;;;5023914;28;20094;-68
2021/05/22 07:55:08;;;;;;;3.25;0.60;;;;;;;;;;5023400;28;20080;-68
2021/05/22 07:57:33;;;;;;;2.88;0.77;;;;;;;;;;5024286;28;20165;-67
2021/05/22 07:59:59;;;;;;;3.88;0.90;;;;;;;;;;5028918;28;20112;-67
2021/05/22 08:02:24;;;;;;;3.80;0.82;;;;;;;;;;5024818;28;20064;-67
2021/05/22 08:04:50;;;;;;;3.53;0.82;;;;;;;;;;5023649;28;20061;-67
2021/05/22 08:07:15;;;;;;;5.53;0.90;;;;;;;;;;5006790;28;20125;-69
2021/05/22 08:09:41;;;;;;;3.50;0.80;;;;;;;;;;5001678;28;20033;-69
2021/05/22 08:12:06;;;;;;;5.45;0.68;;;;;;;;;;5002817;28;20025;-69
2021/05/22 08:14:32;;;;;;;3.20;0.60;;;;;;;;;;5017498;28;20029;-69
2021/05/22 08:16:57;;;;;;;3.60;0.70;;;;;;;;;;5000587;28;20026;-68
2021/05/22 08:19:23;;;;;;;2.85;0.60;;;;;;;;;;5010561;28;20034;-67
2021/05/22 08:21:48;;;;;;;1.42;0.88;;;;;;;;;;5003532;28;20033;-68
2021/05/22 08:24:14;;;;;;;5.25;0.90;;;;;;;;;;5003760;28;20087;-68
2021/05/22 08:26:42;;;;;;;3.25;0.70;;;;;;;;;;5014374;28;20030;-68
2021/05/22 08:29:07;;;;;;;2.90;0.50;;;;;;;;;;5020206;28;20311;-67
2021/05/22 08:31:33;;;;;;;1.63;0.60;;;;;;;;;;5001776;28;20050;-67
2021/05/22 08:33:59;;;;;;;4.43;0.80;;;;;;;;;;4995154;28;20533;-69
2021/05/22 08:36:25;;;;;;;1.67;0.60;;;;;;;;;;5007731;28;20068;-68
2021/05/22 08:38:51;;;;;;;1.83;0.50;;;;;;;;;;4999886;28;20058;-67
2021/05/22 08:41:17;;;;;;;2.55;0.57;;;;;;;;;;5007841;28;20029;-69
2021/05/22 08:43:45;;;;;;;1.95;0.60;;;;;;;;;;5009380;28;20030;-68
2021/05/22 08:46:11;;;;;;;3.55;0.65;;;;;;;;;;5000549;28;20379;-67
2021/05/22 08:48:38;;;;;;;1.10;0.40;;;;;;;;;;5002518;28;20033;-68
2021/05/22 08:51:08;;;;;;;3.63;0.80;;;;;;;;;;5015040;28;20516;-68
2021/05/22 08:53:33;;;;;;;;;;;;;;;;;;5010102;28;20052;-69
2021/05/22 08:55:59;;;;;;;2.03;0.60;;;;;;;;;;5009302;28;19913;-68
2021/05/22 08:58:24;;;;;;;3.85;0.80;;;;;;;;;;5012142;28;20030;-69
2021/05/22 09:00:50;;;;;;;3.22;0.60;;;;;;;;;;5014139;28;20049;-68
2021/05/22 09:03:15;;;;;;;1.13;0.40;;;;;;;;;;4999366;28;20037;-68
2021/05/22 09:05:44;;;;;;;3.13;0.70;;;;;;;;;;5003460;28;20038;-67
2021/05/22 09:08:12;;;;;;;3.00;0.60;;;;;;;;;;5012519;28;20506;-69
2021/05/22 09:10:40;;;;;;;2.65;0.93;;;;;;;;;;4994575;28;20492;-69
2021/05/22 09:13:19;;;;;;;3.17;0.70;;;;;;;;;;5010398;28;20026;-68
2021/05/22 09:15:46;;;;;;;2.78;1.50;;;;;;;;;;5001795;28;20034;-69
2021/05/22 09:18:14;;;;;;;3.33;1.90;;;;;;;;;;4996934;28;20030;-67
2021/05/22 09:20:41;;;;;;;3.00;1.25;;;;;;;;;;4999808;28;20083;-69
2021/05/22 09:23:12;;;;;;;1.83;1.40;;;;;;;;;;4998803;28;20034;-68
2021/05/22 09:25:40;;;;;;;2.00;0.60;;;;;;;;;;5008750;28;20037;-68
2021/05/22 09:28:07;;;;;;;2.97;0.60;;;;;;;;;;5002378;28;20081;-67
2021/05/22 09:30:34;;;;;;;3.33;1.17;;;;;;;;;;5000041;28;20145;-68
2021/05/22 09:32:59;;;;;;;1.77;0.50;;;;;;;;;;4997899;28;20034;-68
2021/05/22 09:35:26;;;;;;;3.00;0.50;;;;;;;;;;5011824;28;20381;-68
2021/05/22 09:38:01;;;;;;;3.53;0.90;;;;;;;;;;5007880;28;20401;-68
2021/05/22 09:40:33;;;;;;;4.20;0.60;;;;;;;;;;4994989;28;20545;-67
2021/05/22 09:43:02;;;;;;;2.55;0.50;;;;;;;;;;5011077;28;20125;-68
2021/05/22 09:45:30;;;;;;;3.13;1.40;;;;;;;;;;4999417;28;20113;-67
2021/05/22 09:48:08;;;;;;;3.22;0.80;;;;;;;;;;5001613;28;20026;-68
2021/05/22 09:50:37;;;;;;;3.78;0.70;;;;;;;;;;5006386;28;20406;-68
2021/05/22 09:53:21;;;;;;;2.70;1.40;;;;;;;;;;5012586;28;20100;-68
2021/05/22 09:56:16;;;;;;;3.22;3.00;;;;;;;;;;4999151;28;20459;-68
2021/05/22 09:58:44;;;;;;;2.92;2.55;;;;;;;;;;4983818;28;20078;-68
2021/05/22 10:01:12;;;;;;;5.15;2.67;;;;;;;;;;5013457;28;20501;-67
2021/05/22 10:03:37;;;;;;;4.57;2.40;;;;;;;;;;5003111;28;20048;-67
2021/05/22 10:06:03;;;;;;;4.88;1.70;;;;;;;;;;5000830;28;20030;-67
2021/05/22 10:08:29;;;;;;;3.97;2.90;;;;;;;;;;4999080;28;20026;-68
2021/05/22 10:10:58;;;;;;;3.50;2.50;;;;;;;;;;5001505;28;20505;-70
2021/05/22 10:13:25;;;;;;;5.22;3.33;;;;;;;;;;5000962;28;20073;-68
2021/05/22 10:16:01;;;;;;;4.63;2.83;;;;;;;;;;4999724;28;20034;-69
2021/05/22 10:18:29;;;;;;;5.10;3.88;;;;;;;;;;5012942;28;20025;-70
2021/05/22 10:20:57;;;;;;;1.90;1.23;;;;;;;;;;5006684;28;20034;-68
2021/05/22 10:23:23;;;;;;;5.55;3.40;;;;;;;;;;5008720;28;20029;-67
2021/05/22 10:25:53;;;;;;;4.53;2.60;;;;;;;;;;5004230;28;20025;-68
2021/05/22 10:28:19;;;;;;;5.28;3.42;;;;;;;;;;4997619;28;20084;-68
2021/05/22 10:30:45;;;;;;;2.80;2.60;;;;;;;;;;5008179;28;20433;-68
2021/05/22 10:33:12;;;;;;;4.85;2.90;;;;;;;;;;5002456;28;20018;-68
2021/05/22 10:35:47;;;;;;;3.17;2.70;;;;;;;;;;5010128;28;20049;-67
2021/05/22 10:38:51;;;;;;;3.00;2.63;;;;;;;;;;5012643;28;20048;-68
2021/05/22 10:41:36;;;;;;;3.65;3.35;;;;;;;;;;4967808;28;20108;-68
2021/05/22 10:44:02;;;;;;;3.97;2.70;;;;;;;;;;5005521;28;20124;-67
2021/05/22 10:46:28;;;;;;;2.83;2.42;;;;;;;;;;5005421;28;20105;-67
2021/05/22 10:49:02;;;;;;;3.75;3.47;;;;;;;;;;5028082;28;20098;-67
2021/05/22 10:51:28;;;;;;;4.60;4.30;;;;;;;;;;5017140;28;20075;-67
2021/05/22 10:53:55;;;;;;;4.22;2.75;;;;;;;;;;5013445;28;20018;-68
2021/05/22 10:56:21;;;;;;;2.88;2.67;;;;;;;;;;5010699;28;20026;-68
2021/05/22 10:59:06;;;;;;;3.13;2.90;;;;;;;;;;5012921;28;20025;-68
2021/05/22 11:01:35;;;;;;;3.60;3.40;;;;;;;;;;5006319;28;20653;-68
2021/05/22 11:04:11;;;;;;;4.60;4.20;;;;;;;;;;5010833;28;20058;-68
2021/05/22 11:06:58;;;;;;;5.22;4.40;;;;;;;;;;5016608;28;20112;-68
2021/05/22 11:11:55;;;;;;;1.70;0.80;;;;;;;;;;5002944;28;20065;-68
2021/05/22 11:14:35;;;;;;;5.68;4.00;;;;;;;;;;5009723;28;20465;-68
2021/05/22 11:17:00;;;;;;;;;;;;;;;;;;5006891;28;20107;-67
2021/05/22 11:19:26;;;;;;;3.83;3.53;;;;;;;;;;4996344;28;19918;-69
2021/05/22 11:22:14;;;;;;;5.25;3.80;;;;;;;;;;5004258;28;20025;-68
2021/05/22 11:25:03;;;;;;;1.67;0.68;;;;;;;;;;5028274;28;20037;-67
2021/05/22 11:27:57;;;;;;;2.10;0.40;;;;;;;;;;5007522;28;20053;-68
2021/05/22 11:30:38;;;;;;;2.17;1.83;;;;;;;;;;4997082;28;20498;-69
2021/05/22 11:33:06;;;;;;;3.55;1.55;;;;;;;;;;5002749;28;20518;-69
2021/05/22 11:35:44;;;;;;;4.00;1.55;;;;;;;;;;5019200;28;20037;-68
2021/05/22 11:38:13;;;;;;;4.20;2.73;;;;;;;;;;5009817;28;20112;-68
2021/05/22 11:40:38;;;;;;;3.05;1.77;;;;;;;;;;5007867;28;20284;-68
2021/05/22 11:43:15;;;;;;;5.05;4.75;;;;;;;;;;5009619;28;20030;-68
2021/05/22 11:45:44;;;;;;;2.35;1.52;;;;;;;;;;5000283;28;20034;-68
2021/05/22 11:48:28;;;;;;;;;;;;;;;;;;5019732;28;20081;-67
2021/05/22 11:50:56;;;;;;;2.10;1.52;;;;;;;;;;5003208;28;20356;-67
2021/05/22 11:53:23;;;;;;;3.33;2.60;;;;;;;;;;5006763;28;20026;-69
2021/05/22 11:56:09;;;;;;;4.90;3.45;;;;;;;;;;5021298;28;20064;-68
2021/05/22 11:58:37;;;;;;;3.55;3.28;;;;;;;;;;5014240;28;20026;-66
2021/05/22 12:01:14;;;;;;;2.45;2.25;;;;;;;;;;5009948;28;20394;-68
2021/05/22 12:03:40;;;;;;;3.78;2.85;;;;;;;;;;5004627;28;20120;-67
2021/05/22 12:06:07;;;;;;;2.83;2.38;;;;;;;;;;5005550;28;20034;-67
2021/05/22 12:08:33;;;;;;;3.53;2.28;;;;;;;;;;5014302;28;20493;-68
2021/05/22 12:11:10;;;;;;;4.78;3.17;;;;;;;;;;5015142;28;20022;-68
2021/05/22 12:13:55;;;;;;;2.97;2.72;;;;;;;;;;5006751;28;20398;-68
2021/05/22 12:16:21;;;;;;;3.35;2.58;;;;;;;;;;5010296;28;20025;-67
2021/05/22 12:18:47;;;;;;;3.08;2.35;;;;;;;;;;5006244;28;20025;-69
2021/05/22 12:21:25;;;;;;;1.67;0.82;;;;;;;;;;4998164;28;20022;-67
2021/05/22 12:23:51;;;;;;;2.05;1.83;;;;;;;;;;5000270;28;20034;-67
2021/05/22 12:26:17;;;;;;;2.35;2.22;;;;;;;;;;5014996;28;20521;-68
2021/05/22 12:28:43;;;;;;;4.18;2.05;;;;;;;;;;5002712;28;20044;-67
2021/05/22 12:31:09;;;;;;;2.33;2.13;;;;;;;;;;5010917;28;20112;-68
2021/05/22 12:33:34;;;;;;;2.83;1.90;;;;;;;;;;5006249;28;20407;-67
2021/05/22 12:36:09;;;;;;;3.22;2.20;;;;;;;;;;5007013;28;20057;-68
2021/05/22 12:38:47;;;;;;;2.65;1.35;;;;;;;;;;5011643;28;20029;-68
2021/05/22 12:41:14;;;;;;;3.55;3.13;;;;;;;;;;5010680;28;20517;-69
2021/05/22 12:43:51;;;;;;;2.10;1.90;;;;;;;;;;5006850;28;20434;-68
2021/05/22 12:46:32;;;;;;;2.67;0.47;;;;;;;;;;5001432;28;20108;-69
2021/05/22 12:49:11;;;;;;;3.47;2.90;;;;;;;;;;5005759;28;20034;-67
2021/05/22 12:51:39;;;;;;;3.95;2.63;;;;;;;;;;5002481;28;20169;-65
2021/05/22 12:54:49;;;;;;;2.47;0.77;;;;;;;;;;4997991;28;20061;-67
2021/05/22 12:57:35;;;;;;;2.38;2.05;;;;;;;;;;4991414;28;20042;-68
2021/05/22 13:00:00;;;;;;;1.80;1.70;;;;;;;;;;4996750;28;20117;-68
2021/05/22 13:02:27;;;;;;;3.22;3.03;;;;;;;;;;4998613;28;20114;-68
2021/05/22 13:05:06;;;;;;;9.48;6.32;;;;;;;;;;5006410;28;20641;-67
2021/05/22 13:07:45;;;;;;;;;;;;;;;;;;4999412;28;20033;-67
2021/05/22 13:10:20;;;;;;;1.92;0.73;;;;;;;;;;4995001;28;19914;-67
2021/05/22 13:13:08;;;;;;;1.95;1.60;;;;;;;;;;4996856;28;20517;-68
2021/05/22 13:15:39;;;;;;;1.88;1.30;;;;;;;;;;4997573;28;20033;-67
2021/05/22 13:18:08;;;;;;;3.33;2.35;;;;;;;;;;4997926;28;20033;-67
2021/05/22 13:20:37;;;;;;;2.55;1.35;;;;;;;;;;5001594;28;20133;-68
2021/05/22 13:23:09;;;;;;;1.67;1.20;;;;;;;;;;5008803;28;20092;-68
2021/05/22 13:25:35;;;;;;;2.05;0.50;;;;;;;;;;5006739;28;20123;-68
2021/05/22 13:28:05;;;;;;;1.48;0.30;;;;;;;;;;4998135;28;20076;-67
2021/05/22 13:30:38;;;;;;;3.13;2.83;;;;;;;;;;5005140;28;20030;-68
2021/05/22 13:33:04;;;;;;;3.30;3.00;;;;;;;;;;5010554;28;20400;-68
2021/05/22 13:35:31;;;;;;;2.75;2.53;;;;;;;;;;5003775;28;20447;-68
2021/05/22 13:37:58;;;;;;;2.95;2.40;;;;;;;;;;5017203;28;20036;-67
2021/05/22 13:40:27;;;;;;;2.67;2.58;;;;;;;;;;5020460;28;20079;-68
2021/05/22 13:42:52;;;;;;;3.67;3.17;;;;;;;;;;5012480;28;20034;-68
2021/05/22 13:45:18;;;;;;;3.38;2.60;;;;;;;;;;5012236;28;20029;-68
2021/05/22 13:47:43;;;;;;;2.58;2.38;;;;;;;;;;5008482;28;20393;-68
2021/05/22 13:50:09;;;;;;;2.75;2.55;;;;;;;;;;5011009;28;20030;-67
2021/05/22 13:52:35;;;;;;;2.63;2.30;;;;;;;;;;5020876;28;20103;-67
2021/05/22 13:55:03;;;;;;;4.65;3.08;;;;;;;;;;5006275;28;20029;-69
2021/05/22 13:57:28;;;;;;;2.25;2.03;;;;;;;;;;4995391;28;20473;-67
2021/05/22 13:59:54;;;;;;;3.80;3.50;;;;;;;;;;4997523;28;20033;-69
2021/05/22 14:02:24;;;;;;;2.63;2.42;;;;;;;;;;4999745;28;20499;-69
2021/05/22 14:04:51;;;;;;;3.92;3.38;;;;;;;;;;5018795;28;20032;-68
2021/05/22 14:07:16;;;;;;;1.52;1.42;;;;;;;;;;5014827;28;20108;-68
2021/05/22 14:09:42;;;;;;;1.80;0.63;;;;;;;;;;5002911;28;20133;-68
2021/05/22 14:12:08;;;;;;;3.75;2.83;;;;;;;;;;5015999;28;20029;-68
2021/05/22 14:14:34;;;;;;;2.85;2.00;;;;;;;;;;5015407;28;20037;-68
2021/05/22 14:17:00;;;;;;;3.05;2.08;;;;;;;;;;5013805;28;20029;-68
2021/05/22 14:19:25;;;;;;;2.22;1.80;;;;;;;;;;5005295;28;20022;-69
2021/05/22 14:21:51;;;;;;;2.15;1.33;;;;;;;;;;5013977;28;20026;-69
2021/05/22 14:24:16;;;;;;;2.80;1.25;;;;;;;;;;5011988;28;20037;-70
2021/05/22 14:26:42;;;;;;;3.50;0.52;;;;;;;;;;5002172;28;20116;-70
2021/05/22 14:29:07;;;;;;;2.25;0.63;;;;;;;;;;4999661;28;20022;-70
2021/05/22 14:31:33;;;;;;;0.57;0.30;;;;;;;;;;5010985;28;20026;-70
2021/05/22 14:33:58;;;;;;;1.65;0.95;;;;;;;;;;5014517;28;20026;-69
2021/05/22 14:36:24;;;;;;;2.80;2.60;;;;;;;;;;5002344;28;20036;-70
2021/05/22 14:38:49;;;;;;;3.60;3.28;;;;;;;;;;5007986;28;20425;-68
2021/05/22 14:41:15;;;;;;;2.67;2.53;;;;;;;;;;5003593;28;20029;-68
2021/05/22 14:43:40;;;;;;;3.28;1.58;;;;;;;;;;5006314;28;20040;-68
2021/05/22 14:46:08;;;;;;;1.50;0.70;;;;;;;;;;5003132;28;20065;-69
2021/05/22 14:48:34;;;;;;;2.80;2.60;;;;;;;;;;5003161;28;20034;-68
2021/05/22 14:50:59;;;;;;;2.50;2.30;;;;;;;;;;5005844;28;20076;-68
2021/05/22 14:53:25;;;;;;;3.92;3.67;;;;;;;;;;5011815;28;20034;-70
2021/05/22 14:55:50;;;;;;;3.38;3.08;;;;;;;;;;5009607;28;20504;-68